Othello — LXOD — position and weather

sailwx.info

Track history (hours):
 
Tides and Currents Weather Stations Pressure Air Temp Water Temp Dewpoint Dewpoint Depression Visibility Wind Speed Wind Dir Waves Ship Positions

Othello

Last reported at 2017-Feb-25 13:29 UTC. Time now 2017-Feb-25 16:06 UTC.
Position N 51°17' E 004°20'.

Length 104 m; draft 7.5 m.

Type: Tanker. MMSI: 253279000.

Date/timePositionNaut miles runAvg speedWind from/ knotsBaromVisibWave heightAir tempDewpointWater temp
2017-Feb-25 13:29N 51°17' E 004°20'0 0.0
2017-Feb-25 11:32N 51°17' E 004°20'0 0.0
2017-Feb-25 10:23N 51°17' E 004°20'0 0.0
2017-Feb-25 09:32N 51°17' E 004°20'0 0.0
2017-Feb-25 08:29N 51°17' E 004°20'0 0.0
2017-Feb-25 07:32N 51°17' E 004°20'0 0.0
2017-Feb-25 06:23N 51°17' E 004°20'0 0.0
2017-Feb-25 05:29N 51°17' E 004°20'0 0.0
2017-Feb-25 04:20N 51°17' E 004°20'0 0.1
2017-Feb-25 03:33N 51°17' E 004°20'2 2.4
2017-Feb-25 02:33N 51°19' E 004°19'2 1.9
2017-Feb-25 01:33N 51°21' E 004°17'1 1.4
2017-Feb-25 00:34N 51°21' E 004°15'9 9.3
2017-Feb-24 23:33N 51°25' E 004°02'1111.4
2017-Feb-24 22:33N 51°22' E 003°44'1010.3
2017-Feb-24 21:33N 51°28' E 003°31'1111.5
2017-Feb-24 20:33N 51°38' E 003°21'84 8.0
2017-Feb-24 10:04N 52°45' E 001°59'612.5
2017-Feb-24 09:33N 52°49' E 001°50'1312.7
2017-Feb-24 08:33N 52°56' E 001°33'1313.0
2017-Feb-24 07:32N 53°07' E 001°19'4912.1
2017-Feb-24 03:29N 53°32' E 000°09'1010.8
2017-Feb-24 02:34N 53°37' W 000°06'8 7.9
2017-Feb-24 01:34N 53°43' W 000°14'1 0.8
2017-Feb-24 00:31N 53°44' W 000°15'0 0.0
2017-Feb-23 23:31N 53°44' W 000°15'0 0.0
2017-Feb-23 22:31N 53°44' W 000°15'0 0.0
2017-Feb-23 21:28N 53°44' W 000°15'0 0.0
2017-Feb-23 20:31N 53°44' W 000°15'0 0.0
2017-Feb-23 19:31N 53°44' W 000°15'0 0.0
2017-Feb-23 18:31N 53°44' W 000°15'0 0.0
2017-Feb-23 17:31N 53°44' W 000°15'0 0.0
2017-Feb-23 16:31N 53°44' W 000°15'0 0.0
2017-Feb-23 15:31N 53°44' W 000°15'0 0.0
2017-Feb-23 14:31N 53°44' W 000°15'0 0.0
2017-Feb-23 13:19N 53°44' W 000°15'0 0.0
2017-Feb-23 12:28N 53°44' W 000°15'0 0.0
2017-Feb-23 11:31N 53°44' W 000°15'0 0.0
2017-Feb-23 10:22N 53°44' W 000°15'0 0.0
2017-Feb-23 09:31N 53°44' W 000°15'0 0.0
2017-Feb-23 08:31N 53°44' W 000°15'0 0.0
2017-Feb-23 07:28N 53°44' W 000°15'0 0.0
2017-Feb-23 06:04N 53°44' W 000°15'0 0.0
2017-Feb-23 05:22N 53°44' W 000°15'0 0.0
2017-Feb-23 04:28N 53°44' W 000°15'0 0.0
2017-Feb-23 03:28N 53°44' W 000°15'0 0.0
2017-Feb-23 02:28N 53°44' W 000°15'0 0.0
2017-Feb-23 01:31N 53°44' W 000°15'0 0.0
2017-Feb-23 00:31N 53°44' W 000°15'0 0.0
2017-Feb-22 23:31N 53°44' W 000°15'0 0.0
2017-Feb-22 22:31N 53°44' W 000°15'0 0.0
2017-Feb-22 21:28N 53°44' W 000°15'0 0.0
2017-Feb-22 20:31N 53°44' W 000°15'0 0.0
2017-Feb-22 19:22N 53°44' W 000°15'0 0.0
2017-Feb-22 18:25N 53°44' W 000°15'0 0.0
2017-Feb-22 17:19N 53°44' W 000°15'0 0.0
2017-Feb-22 16:31N 53°44' W 000°15'0 0.0
2017-Feb-22 15:31N 53°44' W 000°15'0 0.0
2017-Feb-22 14:31N 53°44' W 000°15'0 0.0
2017-Feb-22 13:31N 53°44' W 000°15'0 0.0
2017-Feb-22 12:31N 53°44' W 000°15'0 0.0
2017-Feb-22 11:31N 53°44' W 000°15'0 0.0
2017-Feb-22 10:28N 53°44' W 000°15'0 0.0
2017-Feb-22 09:31N 53°44' W 000°15'0 0.0
2017-Feb-22 08:25N 53°44' W 000°15'2 2.5
2017-Feb-22 07:34N 53°42' W 000°14'6 5.6
2017-Feb-22 06:33N 53°37' W 000°07'1010.2
2017-Feb-22 05:33N 53°33' E 000°09'52 2.7
2017-Feb-21 10:26N 53°05' E 001°22'1213.8
2017-Feb-21 09:33N 52°56' E 001°35'1514.9
2017-Feb-21 08:33N 52°47' E 001°55'8612.3
2017-Feb-21 01:33N 51°39' E 003°20'1313.0
2017-Feb-21 00:34N 51°28' E 003°31'9 8.6
2017-Feb-20 23:33N 51°23' E 003°43'1110.9
2017-Feb-20 22:33N 51°26' E 003°60'9 9.0
2017-Feb-20 21:33N 51°23' E 004°13'3 3.3
2017-Feb-20 20:33N 51°21' E 004°17'2 2.1
2017-Feb-20 19:33N 51°19' E 004°19'2 1.9
2017-Feb-20 18:21N 51°17' E 004°20'0 0.0
2017-Feb-20 16:18N 51°17' E 004°20'0 0.0
2017-Feb-20 15:18N 51°17' E 004°20'0 0.0
2017-Feb-20 14:30N 51°17' E 004°20'0 0.0
2017-Feb-20 13:30N 51°17' E 004°20'0 0.0
2017-Feb-20 12:15N 51°17' E 004°20'0 0.0
2017-Feb-20 10:30N 51°17' E 004°20'0 0.0
2017-Feb-20 09:33N 51°17' E 004°20'0 0.0
2017-Feb-20 08:24N 51°17' E 004°20'0 0.0
2017-Feb-19 17:21N 51°17' E 004°20'4 4.4
2017-Feb-19 16:33N 51°20' E 004°18'1 1.3
2017-Feb-19 15:32N 51°21' E 004°17'4 4.2
2017-Feb-19 14:33N 51°24' E 004°12'7 7.5
2017-Feb-19 13:33N 51°26' E 004°00'10 9.6
2017-Feb-19 12:33N 51°21' E 003°47'9 9.0
2017-Feb-19 11:34N 51°26' E 003°35'1010.1
2017-Feb-19 10:33N 51°34' E 003°25'1210.4
2017-Feb-19 09:24N 51°44' E 003°14'1011.7
2017-Feb-19 08:32N 51°46' E 002°58'6311.8
2017-Feb-19 03:15N 52°39' E 002°04'912.8
2017-Feb-19 02:33N 52°46' E 001°55'1414.0
2017-Feb-19 01:33N 52°55' E 001°37'1413.8
2017-Feb-19 00:33N 53°05' E 001°21'5112.5
2017-Feb-18 20:27N 53°33' E 000°09'910.6
2017-Feb-18 19:33N 53°37' W 000°05'8 8.4
2017-Feb-18 18:33N 53°43' W 000°15'1 0.6
2017-Feb-18 17:25N 53°44' W 000°15'0 0.0
2017-Feb-18 16:28N 53°44' W 000°15'0 0.0
2017-Feb-18 15:28N 53°44' W 000°15'0 0.0
2017-Feb-18 14:28N 53°44' W 000°15'0 0.0
2017-Feb-18 13:31N 53°44' W 000°15'0 0.0
2017-Feb-18 12:31N 53°44' W 000°15'0 0.0
2017-Feb-18 11:13N 53°44' W 000°15'0 0.0
2017-Feb-18 10:25N 53°44' W 000°15'0 0.0
2017-Feb-18 09:28N 53°44' W 000°15'0 0.0
2017-Feb-18 08:22N 53°44' W 000°15'0 0.0
2017-Feb-18 07:31N 53°44' W 000°15'0 0.0
2017-Feb-18 06:31N 53°44' W 000°15'0 0.0
2017-Feb-18 05:28N 53°44' W 000°15'0 0.0
2017-Feb-18 04:31N 53°44' W 000°15'0 0.0
2017-Feb-18 03:31N 53°44' W 000°15'0 0.0
2017-Feb-18 02:22N 53°44' W 000°15'0 0.0
2017-Feb-18 01:31N 53°44' W 000°15'0 0.0
2017-Feb-18 00:31N 53°44' W 000°15'0 0.0
2017-Feb-17 23:25N 53°44' W 000°15'0 0.0
2017-Feb-17 22:19N 53°44' W 000°15'0 0.0
2017-Feb-17 21:28N 53°44' W 000°15'0 0.0
2017-Feb-17 20:10N 53°44' W 000°15'0 0.0
2017-Feb-17 19:28N 53°44' W 000°15'0 0.0
2017-Feb-17 18:28N 53°44' W 000°15'0 0.0
2017-Feb-17 17:31N 53°44' W 000°15'0 0.0
2017-Feb-17 15:28N 53°44' W 000°15'0 0.0
2017-Feb-17 14:31N 53°44' W 000°15'6 6.3
2017-Feb-17 13:33N 53°38' W 000°10'9 8.8
2017-Feb-17 12:33N 53°35' E 000°03'1311.1
2017-Feb-17 11:21N 53°30' E 000°24'4311.2
2017-Feb-17 07:33N 53°05' E 001°22'1111.4
2017-Feb-17 06:34N 52°56' E 001°34'1211.5
2017-Feb-17 05:33N 52°50' E 001°50'8111.5
2017-Feb-16 22:34N 51°44' E 003°06'1212.1
2017-Feb-16 21:33N 51°37' E 003°22'1313.4
2017-Feb-16 20:33N 51°26' E 003°35'1212.2
2017-Feb-16 19:33N 51°21' E 003°53'9 8.6
2017-Feb-16 18:33N 51°22' E 004°07'7 6.8
2017-Feb-16 17:33N 51°21' E 004°17'0 0.0
2017-Feb-16 16:33N 51°21' E 004°17'3 3.5
2017-Feb-16 15:33N 51°18' E 004°20'1 0.2
2017-Feb-16 10:30N 51°17' E 004°20'0 0.0
2017-Feb-16 09:18N 51°17' E 004°20'0 0.0
2017-Feb-16 07:33N 51°17' E 004°20'0 0.0
2017-Feb-16 03:09N 51°17' E 004°20'0 0.0
2017-Feb-16 00:21N 51°17' E 004°20'0 0.0
2017-Feb-15 21:15N 51°17' E 004°20'0 0.0
2017-Feb-15 20:27N 51°17' E 004°20'0 0.0
2017-Feb-15 16:33N 51°17' E 004°20'0 0.0
2017-Feb-15 15:12N 51°17' E 004°20'0 0.0
2017-Feb-15 14:21N 51°17' E 004°20'0 0.0
2017-Feb-15 13:33N 51°17' E 004°20'  
Track history (hours):
 
Tides and Currents Weather Stations Pressure Air Temp Water Temp Dewpoint Dewpoint Depression Visibility Wind Speed Wind Dir Waves Ship Positions

Othello

Last reported at 2017-Feb-25 13:29 UTC. Time now 2017-Feb-25 16:06 UTC.
Position N 51°17' E 004°20'.

Length 104 m; draft 7.5 m.

Type: Tanker. MMSI: 253279000.

Date/timePositionNaut miles runAvg speedWind from/ knotsBaromVisibWave heightAir tempDewpointWater temp
2017-Feb-25 13:29N 51°17' E 004°20'0 0.0
2017-Feb-25 11:32N 51°17' E 004°20'0 0.0
2017-Feb-25 10:23N 51°17' E 004°20'0 0.0
2017-Feb-25 09:32N 51°17' E 004°20'0 0.0
2017-Feb-25 08:29N 51°17' E 004°20'0 0.0
2017-Feb-25 07:32N 51°17' E 004°20'0 0.0
2017-Feb-25 06:23N 51°17' E 004°20'0 0.0
2017-Feb-25 05:29N 51°17' E 004°20'0 0.0
2017-Feb-25 04:20N 51°17' E 004°20'0 0.1
2017-Feb-25 03:33N 51°17' E 004°20'2 2.4
2017-Feb-25 02:33N 51°19' E 004°19'2 1.9
2017-Feb-25 01:33N 51°21' E 004°17'1 1.4
2017-Feb-25 00:34N 51°21' E 004°15'9 9.3
2017-Feb-24 23:33N 51°25' E 004°02'1111.4
2017-Feb-24 22:33N 51°22' E 003°44'1010.3
2017-Feb-24 21:33N 51°28' E 003°31'1111.5
2017-Feb-24 20:33N 51°38' E 003°21'84 8.0
2017-Feb-24 10:04N 52°45' E 001°59'612.5
2017-Feb-24 09:33N 52°49' E 001°50'1312.7
2017-Feb-24 08:33N 52°56' E 001°33'1313.0
2017-Feb-24 07:32N 53°07' E 001°19'4912.1
2017-Feb-24 03:29N 53°32' E 000°09'1010.8
2017-Feb-24 02:34N 53°37' W 000°06'8 7.9
2017-Feb-24 01:34N 53°43' W 000°14'1 0.8
2017-Feb-24 00:31N 53°44' W 000°15'0 0.0
2017-Feb-23 23:31N 53°44' W 000°15'0 0.0
2017-Feb-23 22:31N 53°44' W 000°15'0 0.0
2017-Feb-23 21:28N 53°44' W 000°15'0 0.0
2017-Feb-23 20:31N 53°44' W 000°15'0 0.0
2017-Feb-23 19:31N 53°44' W 000°15'0 0.0
2017-Feb-23 18:31N 53°44' W 000°15'0 0.0
2017-Feb-23 17:31N 53°44' W 000°15'0 0.0
2017-Feb-23 16:31N 53°44' W 000°15'0 0.0
2017-Feb-23 15:31N 53°44' W 000°15'0 0.0
2017-Feb-23 14:31N 53°44' W 000°15'0 0.0
2017-Feb-23 13:19N 53°44' W 000°15'0 0.0
2017-Feb-23 12:28N 53°44' W 000°15'0 0.0
2017-Feb-23 11:31N 53°44' W 000°15'0 0.0
2017-Feb-23 10:22N 53°44' W 000°15'0 0.0
2017-Feb-23 09:31N 53°44' W 000°15'0 0.0
2017-Feb-23 08:31N 53°44' W 000°15'0 0.0
2017-Feb-23 07:28N 53°44' W 000°15'0 0.0
2017-Feb-23 06:04N 53°44' W 000°15'0 0.0
2017-Feb-23 05:22N 53°44' W 000°15'0 0.0
2017-Feb-23 04:28N 53°44' W 000°15'0 0.0
2017-Feb-23 03:28N 53°44' W 000°15'0 0.0
2017-Feb-23 02:28N 53°44' W 000°15'0 0.0
2017-Feb-23 01:31N 53°44' W 000°15'0 0.0
2017-Feb-23 00:31N 53°44' W 000°15'0 0.0
2017-Feb-22 23:31N 53°44' W 000°15'0 0.0
2017-Feb-22 22:31N 53°44' W 000°15'0 0.0
2017-Feb-22 21:28N 53°44' W 000°15'0 0.0
2017-Feb-22 20:31N 53°44' W 000°15'0 0.0
2017-Feb-22 19:22N 53°44' W 000°15'0 0.0
2017-Feb-22 18:25N 53°44' W 000°15'0 0.0
2017-Feb-22 17:19N 53°44' W 000°15'0 0.0
2017-Feb-22 16:31N 53°44' W 000°15'0 0.0
2017-Feb-22 15:31N 53°44' W 000°15'0 0.0
2017-Feb-22 14:31N 53°44' W 000°15'0 0.0
2017-Feb-22 13:31N 53°44' W 000°15'0 0.0
2017-Feb-22 12:31N 53°44' W 000°15'0 0.0
2017-Feb-22 11:31N 53°44' W 000°15'0 0.0
2017-Feb-22 10:28N 53°44' W 000°15'0 0.0
2017-Feb-22 09:31N 53°44' W 000°15'0 0.0
2017-Feb-22 08:25N 53°44' W 000°15'2 2.5
2017-Feb-22 07:34N 53°42' W 000°14'6 5.6
2017-Feb-22 06:33N 53°37' W 000°07'1010.2
2017-Feb-22 05:33N 53°33' E 000°09'52 2.7
2017-Feb-21 10:26N 53°05' E 001°22'1213.8
2017-Feb-21 09:33N 52°56' E 001°35'1514.9
2017-Feb-21 08:33N 52°47' E 001°55'8612.3
2017-Feb-21 01:33N 51°39' E 003°20'1313.0
2017-Feb-21 00:34N 51°28' E 003°31'9 8.6
2017-Feb-20 23:33N 51°23' E 003°43'1110.9
2017-Feb-20 22:33N 51°26' E 003°60'9 9.0
2017-Feb-20 21:33N 51°23' E 004°13'3 3.3
2017-Feb-20 20:33N 51°21' E 004°17'2 2.1
2017-Feb-20 19:33N 51°19' E 004°19'2 1.9
2017-Feb-20 18:21N 51°17' E 004°20'0 0.0
2017-Feb-20 16:18N 51°17' E 004°20'0 0.0
2017-Feb-20 15:18N 51°17' E 004°20'0 0.0
2017-Feb-20 14:30N 51°17' E 004°20'0 0.0
2017-Feb-20 13:30N 51°17' E 004°20'0 0.0
2017-Feb-20 12:15N 51°17' E 004°20'0 0.0
2017-Feb-20 10:30N 51°17' E 004°20'0 0.0
2017-Feb-20 09:33N 51°17' E 004°20'0 0.0
2017-Feb-20 08:24N 51°17' E 004°20'0 0.0
2017-Feb-19 17:21N 51°17' E 004°20'4 4.4
2017-Feb-19 16:33N 51°20' E 004°18'1 1.3
2017-Feb-19 15:32N 51°21' E 004°17'4 4.2
2017-Feb-19 14:33N 51°24' E 004°12'7 7.5
2017-Feb-19 13:33N 51°26' E 004°00'10 9.6
2017-Feb-19 12:33N 51°21' E 003°47'9 9.0
2017-Feb-19 11:34N 51°26' E 003°35'1010.1
2017-Feb-19 10:33N 51°34' E 003°25'1210.4
2017-Feb-19 09:24N 51°44' E 003°14'1011.7
2017-Feb-19 08:32N 51°46' E 002°58'6311.8
2017-Feb-19 03:15N 52°39' E 002°04'912.8
2017-Feb-19 02:33N 52°46' E 001°55'1414.0
2017-Feb-19 01:33N 52°55' E 001°37'1413.8
2017-Feb-19 00:33N 53°05' E 001°21'5112.5
2017-Feb-18 20:27N 53°33' E 000°09'910.6
2017-Feb-18 19:33N 53°37' W 000°05'8 8.4
2017-Feb-18 18:33N 53°43' W 000°15'1 0.6
2017-Feb-18 17:25N 53°44' W 000°15'0 0.0
2017-Feb-18 16:28N 53°44' W 000°15'0 0.0
2017-Feb-18 15:28N 53°44' W 000°15'0 0.0
2017-Feb-18 14:28N 53°44' W 000°15'0 0.0
2017-Feb-18 13:31N 53°44' W 000°15'0 0.0
2017-Feb-18 12:31N 53°44' W 000°15'0 0.0
2017-Feb-18 11:13N 53°44' W 000°15'0 0.0
2017-Feb-18 10:25N 53°44' W 000°15'0 0.0
2017-Feb-18 09:28N 53°44' W 000°15'0 0.0
2017-Feb-18 08:22N 53°44' W 000°15'0 0.0
2017-Feb-18 07:31N 53°44' W 000°15'0 0.0
2017-Feb-18 06:31N 53°44' W 000°15'0 0.0
2017-Feb-18 05:28N 53°44' W 000°15'0 0.0
2017-Feb-18 04:31N 53°44' W 000°15'0 0.0
2017-Feb-18 03:31N 53°44' W 000°15'0 0.0
2017-Feb-18 02:22N 53°44' W 000°15'0 0.0
2017-Feb-18 01:31N 53°44' W 000°15'0 0.0
2017-Feb-18 00:31N 53°44' W 000°15'0 0.0
2017-Feb-17 23:25N 53°44' W 000°15'0 0.0
2017-Feb-17 22:19N 53°44' W 000°15'0 0.0
2017-Feb-17 21:28N 53°44' W 000°15'0 0.0
2017-Feb-17 20:10N 53°44' W 000°15'0 0.0
2017-Feb-17 19:28N 53°44' W 000°15'0 0.0
2017-Feb-17 18:28N 53°44' W 000°15'0 0.0
2017-Feb-17 17:31N 53°44' W 000°15'0 0.0
2017-Feb-17 15:28N 53°44' W 000°15'0 0.0
2017-Feb-17 14:31N 53°44' W 000°15'6 6.3
2017-Feb-17 13:33N 53°38' W 000°10'9 8.8
2017-Feb-17 12:33N 53°35' E 000°03'1311.1
2017-Feb-17 11:21N 53°30' E 000°24'4311.2
2017-Feb-17 07:33N 53°05' E 001°22'1111.4
2017-Feb-17 06:34N 52°56' E 001°34'1211.5
2017-Feb-17 05:33N 52°50' E 001°50'8111.5
2017-Feb-16 22:34N 51°44' E 003°06'1212.1
2017-Feb-16 21:33N 51°37' E 003°22'1313.4
2017-Feb-16 20:33N 51°26' E 003°35'1212.2
2017-Feb-16 19:33N 51°21' E 003°53'9 8.6
2017-Feb-16 18:33N 51°22' E 004°07'7 6.8
2017-Feb-16 17:33N 51°21' E 004°17'0 0.0
2017-Feb-16 16:33N 51°21' E 004°17'3 3.5
2017-Feb-16 15:33N 51°18' E 004°20'1 0.2
2017-Feb-16 10:30N 51°17' E 004°20'0 0.0
2017-Feb-16 09:18N 51°17' E 004°20'0 0.0
2017-Feb-16 07:33N 51°17' E 004°20'0 0.0
2017-Feb-16 03:09N 51°17' E 004°20'0 0.0
2017-Feb-16 00:21N 51°17' E 004°20'0 0.0
2017-Feb-15 21:15N 51°17' E 004°20'0 0.0
2017-Feb-15 20:27N 51°17' E 004°20'0 0.0
2017-Feb-15 16:33N 51°17' E 004°20'0 0.0
2017-Feb-15 15:12N 51°17' E 004°20'0 0.0
2017-Feb-15 14:21N 51°17' E 004°20'0 0.0
2017-Feb-15 13:33N 51°17' E 004°20'  

Dump ship's entire track history